Time;durP1;ratioP1;P1;durP2;ratioP2;P2;SDS_P1;SDS_P2;PMS_P1;PMS_P2;Temp;Humidity;BMP_temperature;BMP_pressure;BME280_temperature;BME280_humidity;BME280_pressure;Samples;Min_cycle;Max_cycle;Signal;HPM_P1;HPM_P2
2021/01/25 05:22:47;;;;;;;3.15;2.80;;;2.20;98.10;;;;;;6112897;23;21281;31
2021/01/25 05:25:29;;;;;;;3.45;3.05;;;2.00;98.80;;;;;;4951242;29;20235;-74
2021/01/25 05:27:56;;;;;;;3.17;2.88;;;2.20;98.20;;;;;;4941978;28;20623;-74
2021/01/25 05:30:22;;;;;;;4.35;3.28;;;2.20;98.80;;;;;;4974136;28;20174;-73
2021/01/25 05:32:50;;;;;;;3.38;2.80;;;2.10;98.80;;;;;;4973587;28;20260;-72
2021/01/25 05:35:17;;;;;;;3.70;2.95;;;2.00;98.60;;;;;;4973469;28;20171;-73
2021/01/25 05:37:49;;;;;;;4.13;3.45;;;2.00;98.60;;;;;;4973119;28;20220;-74
2021/01/25 05:40:15;;;;;;;4.57;3.63;;;2.00;99.00;;;;;;4956182;28;20178;-74
2021/01/25 05:42:42;;;;;;;4.03;3.25;;;1.90;99.00;;;;;;4973346;28;20710;-74
2021/01/25 05:45:12;;;;;;;4.85;3.40;;;1.70;99.50;;;;;;4988385;28;20261;-74
2021/01/25 05:47:55;;;;;;;6.72;4.03;;;1.80;99.10;;;;;;4973501;28;20170;-73
2021/01/25 05:50:34;;;;;;;4.07;3.55;;;1.70;99.20;;;;;;4980960;28;20201;-74
2021/01/25 05:53:05;;;;;;;3.83;3.42;;;1.70;99.40;;;;;;4953505;28;20595;-73
2021/01/25 05:55:31;;;;;;;4.85;3.85;;;1.70;99.40;;;;;;4936800;29;20579;-70
2021/01/25 05:57:57;;;;;;;3.95;3.55;;;1.70;99.90;;;;;;4953574;28;20218;-72
2021/01/25 06:00:24;;;;;;;5.00;3.70;;;1.70;99.20;;;;;;4953917;29;20626;-72
2021/01/25 06:02:51;;;;;;;6.20;3.58;;;1.80;98.60;;;;;;4936630;29;20613;-73
2021/01/25 06:05:40;;;;;;;4.15;3.25;;;1.80;98.50;;;;;;4968393;28;20182;-73
2021/01/25 06:08:17;;;;;;;4.38;3.50;;;1.80;98.20;;;;;;4935946;29;20898;-70
2021/01/25 06:11:20;;;;;;;4.30;3.75;;;1.80;98.40;;;;;;4953644;29;20760;-71
2021/01/25 06:14:07;;;;;;;3.75;3.30;;;1.70;98.80;;;;;;4954660;28;20208;-72
2021/01/25 06:16:34;;;;;;;4.45;3.85;;;1.70;98.90;;;;;;4978366;28;20170;-73
2021/01/25 06:19:02;;;;;;;5.25;3.63;;;1.60;98.60;;;;;;4982451;28;20251;-73
2021/01/25 06:21:33;;;;;;;6.13;3.50;;;1.60;98.50;;;;;;4965590;28;20171;-72
2021/01/25 06:24:02;;;;;;;7.57;3.38;;;1.70;99.70;;;;;;4978881;28;20225;-73
2021/01/25 06:26:30;;;;;;;6.45;4.10;;;1.50;99.60;;;;;;4992184;28;20181;-73
2021/01/25 06:29:01;;;;;;;4.95;3.78;;;1.60;98.80;;;;;;4992381;28;20201;-73
2021/01/25 06:31:27;;;;;;;4.07;3.67;;;;;;;;;;4973995;28;20559;-73
2021/01/25 06:33:52;;;;;;;4.50;4.00;;;1.60;98.70;;;;;;4991413;28;20269;-73
2021/01/25 06:36:20;;;;;;;7.15;4.25;;;1.60;99.70;;;;;;4974559;28;20229;-73
2021/01/25 06:38:50;;;;;;;6.80;4.70;;;1.60;99.40;;;;;;4991551;28;20221;-73
2021/01/25 06:41:17;;;;;;;4.30;3.75;;;1.60;99.50;;;;;;4991693;28;20195;-73
2021/01/25 06:43:48;;;;;;;4.85;3.70;;;2.20;99.90;;;;;;4991807;28;20573;-75
2021/01/25 06:46:21;;;;;;;4.30;3.90;;;1.70;99.80;;;;;;4974228;28;20228;-73
2021/01/25 06:48:49;;;;;;;5.10;3.80;;;;;;;;;;4991146;28;20664;-73
2021/01/25 06:51:17;;;;;;;4.63;3.40;;;1.60;98.70;;;;;;4990931;28;20712;-73
2021/01/25 06:53:43;;;;;;;4.57;3.55;;;1.90;99.10;;;;;;4983084;28;20201;-75
2021/01/25 06:56:09;;;;;;;5.80;4.00;;;;;;;;;;4988811;28;20417;-76
2021/01/25 06:58:38;;;;;;;4.28;3.67;;;1.50;99.10;;;;;;4972076;28;20241;-73
2021/01/25 07:01:08;;;;;;;4.85;3.47;;;1.50;99.40;;;;;;4954824;28;20190;-73
2021/01/25 07:03:51;;;;;;;5.03;4.30;;;1.50;99.20;;;;;;4972403;28;20191;-73
2021/01/25 07:06:17;;;;;;;3.50;3.20;;;1.50;99.40;;;;;;4971894;28;20222;-73
2021/01/25 07:08:53;;;;;;;5.38;3.88;;;1.50;99.90;;;;;;4971504;28;20190;-72
2021/01/25 07:11:21;;;;;;;3.65;3.30;;;1.60;99.20;;;;;;4971995;28;20281;-73
2021/01/25 07:13:48;;;;;;;4.57;4.18;;;1.50;99.60;;;;;;4971528;28;20186;-73
2021/01/25 07:16:14;;;;;;;5.30;3.80;;;1.60;99.80;;;;;;4972000;28;20202;-73
2021/01/25 07:18:42;;;;;;;4.10;3.70;;;1.60;99.90;;;;;;4972190;28;20690;-73
2021/01/25 07:21:12;;;;;;;4.57;4.00;;;1.60;99.90;;;;;;4973469;28;20171;-73
2021/01/25 07:23:41;;;;;;;3.78;3.42;;;1.70;99.90;;;;;;4975073;28;20281;-73
2021/01/25 07:26:07;;;;;;;6.55;3.28;;;1.60;99.90;;;;;;4958314;28;20179;-74
2021/01/25 07:28:33;;;;;;;4.55;3.80;;;1.60;99.90;;;;;;4957976;28;20198;-73
2021/01/25 07:30:59;;;;;;;4.25;3.83;;;1.60;99.90;;;;;;4975707;28;20663;-73
2021/01/25 07:33:26;;;;;;;5.05;4.07;;;1.70;99.90;;;;;;4976163;28;20719;-73
2021/01/25 07:35:55;;;;;;;6.15;4.50;;;1.60;99.90;;;;;;4975708;28;20178;-73
2021/01/25 07:38:22;;;;;;;7.00;5.50;;;1.70;99.90;;;;;;4975038;28;20241;-72
2021/01/25 07:40:49;;;;;;;6.93;5.30;;;1.70;99.90;;;;;;4975600;28;20166;-73
2021/01/25 07:43:16;;;;;;;6.50;5.72;;;1.70;99.90;;;;;;4975511;28;20198;-73
2021/01/25 07:45:43;;;;;;;6.68;5.47;;;1.70;99.90;;;;;;4958367;28;20758;-73
2021/01/25 07:48:10;;;;;;;7.18;4.85;;;2.60;99.90;;;;;;4975340;28;20201;-73
2021/01/25 07:50:36;;;;;;;8.68;5.50;;;1.80;99.90;;;;;;4975333;28;20551;-73
2021/01/25 07:53:05;;;;;;;7.40;4.68;;;1.90;99.90;;;;;;4974881;28;20199;-73
2021/01/25 07:55:31;;;;;;;8.20;5.22;;;2.10;99.90;;;;;;4975437;28;20441;-73
2021/01/25 07:58:07;;;;;;;7.30;4.75;;;2.00;99.90;;;;;;4957898;28;20218;-73
2021/01/25 08:00:34;;;;;;;6.45;4.55;;;2.00;99.90;;;;;;4958062;28;20206;-73
2021/01/25 08:03:22;;;;;;;8.35;4.45;;;2.50;99.90;;;;;;4974951;28;20281;-73
2021/01/25 08:05:56;;;;;;;5.32;4.22;;;2.20;99.90;;;;;;4957933;28;20819;-73
2021/01/25 08:08:24;;;;;;;6.40;4.63;;;2.30;99.90;;;;;;4957138;28;20217;-73
2021/01/25 08:10:50;;;;;;;8.75;4.70;;;2.40;99.90;;;;;;4957440;28;20187;-73
2021/01/25 08:13:19;;;;;;;8.50;4.18;;;2.40;99.90;;;;;;4975374;28;20245;-73
2021/01/25 08:15:51;;;;;;;5.20;4.53;;;2.40;99.90;;;;;;4957390;28;20178;-73
2021/01/25 08:18:19;;;;;;;8.35;4.35;;;2.50;99.90;;;;;;4974671;28;20700;-73
2021/01/25 08:20:45;;;;;;;7.30;4.50;;;2.40;99.80;;;;;;4974884;28;20202;-73
2021/01/25 08:23:19;;;;;;;6.25;4.20;;;2.40;99.90;;;;;;4974010;28;20205;-73
2021/01/25 08:25:53;;;;;;;8.82;4.15;;;2.40;99.90;;;;;;4975077;28;20177;-73
2021/01/25 08:28:23;;;;;;;7.40;4.22;;;2.40;99.90;;;;;;4974601;28;20225;-73
2021/01/25 08:30:53;;;;;;;5.93;4.22;;;2.50;99.90;;;;;;4957570;28;20190;-73
2021/01/25 08:33:32;;;;;;;5.05;3.65;;;2.50;99.70;;;;;;4956024;28;20198;-73
2021/01/25 08:36:00;;;;;;;6.82;4.00;;;2.50;99.40;;;;;;4974446;28;20178;-73
2021/01/25 08:38:40;;;;;;;4.10;3.60;;;2.60;99.50;;;;;;4956437;28;20229;-73
2021/01/25 08:41:18;;;;;;;8.43;4.38;;;2.50;98.90;;;;;;4957034;28;20637;-73
2021/01/25 08:43:51;;;;;;;4.10;3.70;;;2.50;99.20;;;;;;4957118;28;20195;-73
2021/01/25 08:46:18;;;;;;;5.35;3.97;;;2.50;98.90;;;;;;4953319;28;20859;-72
2021/01/25 08:48:44;;;;;;;5.25;3.25;;;2.50;98.30;;;;;;4946945;28;20195;-73
2021/01/25 08:51:28;;;;;;;4.38;3.97;;;2.60;97.50;;;;;;4961026;28;21950;-73
2021/01/25 08:54:25;;;;;;;5.35;3.33;;;2.60;97.20;;;;;;4956454;28;20343;-73
2021/01/25 08:56:51;;;;;;;4.93;3.55;;;2.60;97.40;;;;;;4971582;28;20586;-72
2021/01/25 08:59:29;;;;;;;5.97;4.05;;;2.60;97.70;;;;;;4974172;28;20199;-73
2021/01/25 09:01:55;;;;;;;4.68;3.30;;;2.80;98.10;;;;;;4974099;28;20178;-73
2021/01/25 09:04:21;;;;;;;4.78;3.50;;;2.70;98.50;;;;;;4974085;28;20322;-73
2021/01/25 09:06:54;;;;;;;6.15;3.85;;;2.80;98.40;;;;;;4956484;28;20540;-73
2021/01/25 09:09:20;;;;;;;6.05;4.28;;;2.80;97.70;;;;;;4973637;28;20202;-73
2021/01/25 09:11:46;;;;;;;3.70;3.35;;;2.80;97.20;;;;;;4956516;28;20631;-73
2021/01/25 09:14:17;;;;;;;7.97;3.70;;;2.80;97.30;;;;;;4956360;28;20229;-73
2021/01/25 09:16:43;;;;;;;9.00;4.57;;;2.90;97.50;;;;;;4973863;28;20182;-73
2021/01/25 09:19:09;;;;;;;7.82;3.97;;;3.00;97.50;;;;;;4956335;28;20307;-73
2021/01/25 09:21:35;;;;;;;6.00;4.40;;;3.00;98.10;;;;;;4956304;28;20171;-73
2021/01/25 09:24:00;;;;;;;7.10;4.72;;;3.10;97.30;;;;;;4973357;28;20621;-73
2021/01/25 09:26:26;;;;;;;6.75;3.90;;;3.10;97.40;;;;;;4973692;28;20174;-73
2021/01/25 09:28:52;;;;;;;8.50;4.85;;;3.20;97.00;;;;;;4973593;28;20205;-73
2021/01/25 09:31:18;;;;;;;6.90;4.32;;;3.20;97.00;;;;;;4973707;28;20637;-73
2021/01/25 09:33:44;;;;;;;6.68;4.55;;;3.30;96.60;;;;;;4973431;28;20213;-73
2021/01/25 09:36:10;;;;;;;5.45;4.05;;;3.30;96.60;;;;;;4973578;28;20625;-72
2021/01/25 09:38:35;;;;;;;6.43;5.07;;;3.40;96.40;;;;;;4972929;28;20218;-72
2021/01/25 09:41:01;;;;;;;9.02;5.88;;;3.40;96.90;;;;;;4973548;28;20258;-72
2021/01/25 09:43:27;;;;;;;8.65;5.95;;;3.40;97.20;;;;;;4972818;28;20536;-73
2021/01/25 09:45:52;;;;;;;8.77;5.45;;;3.50;97.90;;;;;;4973388;28;20178;-72
2021/01/25 09:48:18;;;;;;;9.32;6.40;;;3.60;98.30;;;;;;4955533;28;20202;-73
2021/01/25 09:50:47;;;;;;;8.63;5.88;;;3.60;98.50;;;;;;4955943;28;20598;-73
2021/01/25 09:53:14;;;;;;;10.55;6.18;;;3.60;98.20;;;;;;4955311;28;20199;-74
2021/01/25 09:55:39;;;;;;;7.20;5.38;;;3.70;98.30;;;;;;4973432;28;20166;-75
2021/01/25 09:58:05;;;;;;;8.82;6.00;;;3.70;97.90;;;;;;4972868;28;20232;-74
2021/01/25 10:00:31;;;;;;;9.75;6.95;;;3.70;97.70;;;;;;4973351;28;20331;-74
2021/01/25 10:02:56;;;;;;;6.88;6.10;;;3.80;98.10;;;;;;4973332;28;20661;-75
2021/01/25 10:05:22;;;;;;;6.82;5.85;;;3.80;98.00;;;;;;4972976;28;20178;-74
2021/01/25 10:07:48;;;;;;;8.55;6.28;;;3.70;98.20;;;;;;4972590;28;20293;-76
2021/01/25 10:10:16;;;;;;;8.95;6.85;;;3.70;97.90;;;;;;4970116;28;20178;-75
2021/01/25 10:12:42;;;;;;;7.00;6.30;;;3.70;98.30;;;;;;4955618;28;20281;-75
2021/01/25 10:15:10;;;;;;;8.15;6.05;;;3.70;99.10;;;;;;4972326;28;20222;-75
2021/01/25 10:17:36;;;;;;;9.27;6.45;;;3.70;98.90;;;;;;4955595;28;20229;-75
2021/01/25 10:20:03;;;;;;;9.65;6.60;;;3.80;98.70;;;;;;4972768;28;20208;-74
2021/01/25 10:22:29;;;;;;;9.10;6.75;;;3.80;98.40;;;;;;4972712;28;20175;-74
2021/01/25 10:24:55;;;;;;;9.07;6.47;;;3.80;98.30;;;;;;4972690;28;20222;-76
2021/01/25 10:27:21;;;;;;;11.68;7.43;;;3.80;98.40;;;;;;4972950;28;20175;-74
2021/01/25 10:29:46;;;;;;;9.70;8.48;;;3.80;98.60;;;;;;4972650;28;20167;-75
2021/01/25 10:32:15;;;;;;;14.93;8.82;;;3.80;98.60;;;;;;4972916;28;20177;-74
2021/01/25 10:34:40;;;;;;;14.57;9.15;;;3.80;98.60;;;;;;4955328;28;20285;-75
2021/01/25 10:37:06;;;;;;;9.43;7.82;;;3.90;98.00;;;;;;4972509;28;20261;-75
2021/01/25 10:39:32;;;;;;;10.50;7.53;;;3.90;97.10;;;;;;4972476;28;20701;-75
2021/01/25 10:41:57;;;;;;;15.15;9.27;;;3.90;98.70;;;;;;4972476;28;20656;-75
2021/01/25 10:44:23;;;;;;;11.98;8.77;;;3.90;98.50;;;;;;4972775;28;20197;-75
2021/01/25 10:46:48;;;;;;;11.00;8.27;;;3.90;98.00;;;;;;4955219;28;20233;-75
2021/01/25 10:49:14;;;;;;;11.23;8.85;;;3.90;97.60;;;;;;4955265;28;20282;-74
2021/01/25 10:51:40;;;;;;;11.93;8.75;;;4.00;97.20;;;;;;4955248;28;20175;-75
2021/01/25 10:54:05;;;;;;;14.13;8.60;;;4.10;97.50;;;;;;4955113;28;20195;-75
2021/01/25 10:56:31;;;;;;;13.95;8.90;;;4.20;97.70;;;;;;4974567;28;20207;-74
2021/01/25 10:58:57;;;;;;;17.58;10.13;;;4.20;97.50;;;;;;4976174;28;20254;-74
2021/01/25 11:01:22;;;;;;;12.68;9.95;;;4.20;96.30;;;;;;4976282;28;20194;-74
2021/01/25 11:03:48;;;;;;;15.85;9.27;;;4.30;96.60;;;;;;4976396;28;20560;-75
2021/01/25 11:06:16;;;;;;;12.98;9.90;;;4.20;96.80;;;;;;4958709;28;20174;-75
2021/01/25 11:08:42;;;;;;;14.13;9.75;;;4.20;96.40;;;;;;4975713;28;20661;-75
2021/01/25 11:11:09;;;;;;;18.85;9.43;;;4.20;96.90;;;;;;4975969;28;20625;-75
2021/01/25 11:13:35;;;;;;;12.40;9.05;;;4.30;96.00;;;;;;4975772;28;20205;-75
2021/01/25 11:16:01;;;;;;;12.43;8.63;;;4.30;96.30;;;;;;4958709;28;20229;-75
2021/01/25 11:18:28;;;;;;;12.00;8.23;;;4.30;96.60;;;;;;4975699;28;20214;-75
2021/01/25 11:20:55;;;;;;;11.05;8.77;;;4.40;96.80;;;;;;4976046;28;20214;-75
2021/01/25 11:23:21;;;;;;;12.45;8.02;;;4.30;97.10;;;;;;4975116;28;20240;-76
2021/01/25 11:25:46;;;;;;;10.50;7.40;;;4.30;97.70;;;;;;4958622;28;20552;-75
2021/01/25 11:28:12;;;;;;;7.68;6.75;;;4.30;97.60;;;;;;4975965;28;20198;-75
2021/01/25 11:30:38;;;;;;;10.55;7.72;;;4.30;98.00;;;;;;4958525;28;20242;-75
2021/01/25 11:33:04;;;;;;;9.95;7.45;;;4.40;98.30;;;;;;4958296;28;20252;-75
2021/01/25 11:35:29;;;;;;;10.00;7.65;;;4.40;97.90;;;;;;4975800;28;20182;-75
2021/01/25 11:37:55;;;;;;;12.38;7.15;;;4.40;98.40;;;;;;4957544;28;20269;-75
2021/01/25 11:40:24;;;;;;;9.40;7.53;;;4.40;98.10;;;;;;4958382;28;20175;-74
2021/01/25 11:42:50;;;;;;;10.38;7.25;;;4.40;97.80;;;;;;4975429;28;20246;-75
2021/01/25 11:45:15;;;;;;;14.63;7.72;;;4.40;97.70;;;;;;4958244;28;20178;-77
2021/01/25 11:47:41;;;;;;;12.50;7.93;;;4.50;98.20;;;;;;4975505;28;20190;-76
2021/01/25 11:50:11;;;;;;;12.45;7.88;;;4.50;97.60;;;;;;4975280;28;20178;-76
2021/01/25 11:52:37;;;;;;;14.88;8.20;;;4.50;96.60;;;;;;4957924;28;20206;-75
2021/01/25 11:55:04;;;;;;;9.13;7.20;;;4.50;96.00;;;;;;4974997;28;20171;-76
2021/01/25 11:57:31;;;;;;;12.35;7.82;;;4.60;95.40;;;;;;4974982;28;20210;-76
2021/01/25 11:59:57;;;;;;;11.13;7.28;;;4.70;95.20;;;;;;4957646;28;20213;-76
2021/01/25 12:02:24;;;;;;;8.80;6.95;;;4.70;95.90;;;;;;4957536;28;20521;-76
2021/01/25 12:04:50;;;;;;;10.02;7.00;;;4.70;95.10;;;;;;4975225;28;20171;-76
2021/01/25 12:07:17;;;;;;;9.98;7.30;;;4.70;94.60;;;;;;4974884;28;20174;-75
2021/01/25 12:09:43;;;;;;;8.57;5.65;;;4.80;94.90;;;;;;4974923;28;20224;-76
2021/01/25 12:12:09;;;;;;;10.95;6.93;;;4.80;95.00;;;;;;4975105;28;20249;-75
2021/01/25 12:14:35;;;;;;;8.82;6.28;;;4.90;94.00;;;;;;4974904;28;20676;-75
2021/01/25 12:17:00;;;;;;;8.90;6.13;;;4.90;94.20;;;;;;4957585;28;20185;-76
2021/01/25 12:19:26;;;;;;;7.78;5.90;;;4.90;93.80;;;;;;4974821;28;20194;-77
2021/01/25 12:21:51;;;;;;;9.60;6.45;;;5.00;93.90;;;;;;4974788;28;20180;-76
2021/01/25 12:24:17;;;;;;;10.75;6.25;;;5.00;95.30;;;;;;4956999;28;20250;-76
2021/01/25 12:26:43;;;;;;;10.82;6.00;;;5.10;94.90;;;;;;4974710;28;20645;-76
2021/01/25 12:29:09;;;;;;;8.13;6.05;;;5.20;94.00;;;;;;4974786;28;20195;-75
2021/01/25 12:31:34;;;;;;;6.25;4.65;;;5.30;93.00;;;;;;4974713;28;20618;-76
2021/01/25 12:34:01;;;;;;;6.50;4.80;;;5.40;94.10;;;;;;4957370;28;20290;-76
2021/01/25 12:36:26;;;;;;;7.20;4.45;;;5.50;92.20;;;;;;4974472;28;20178;-76
2021/01/25 12:38:52;;;;;;;6.67;4.53;;;;;;;;;;4973156;28;20438;-74
2021/01/25 12:41:19;;;;;;;7.75;5.28;;;;;;;;;;4974338;28;20170;-74
2021/01/25 12:43:45;;;;;;;5.20;4.28;;;;;;;;;;4991536;28;20204;-75
2021/01/25 12:46:11;;;;;;;6.13;4.38;;;;;;;;;;4976144;28;20593;-74
2021/01/25 12:48:37;;;;;;;6.20;5.15;;;6.40;91.10;;;;;;4976546;28;20206;-78
2021/01/25 12:51:03;;;;;;;5.22;4.07;;;5.80;91.00;;;;;;4967241;28;20198;-78
2021/01/25 12:53:29;;;;;;;5.38;4.70;;;;;;;;;;4954522;28;20309;-75
2021/01/25 12:55:55;;;;;;;5.97;5.38;;;6.10;90.10;;;;;;4984430;28;20177;-76
2021/01/25 12:58:20;;;;;;;6.07;5.15;;;6.10;99.90;;;;;;4992678;28;20226;-74
2021/01/25 13:00:46;;;;;;;8.98;4.80;;;6.20;89.70;;;;;;4993052;28;20174;-75
2021/01/25 13:03:12;;;;;;;5.97;5.38;;;;;;;;;;4992422;28;20194;-73
2021/01/25 13:05:38;;;;;;;5.38;4.80;;;6.20;88.00;;;;;;4992850;28;20264;-73
2021/01/25 13:08:04;;;;;;;5.85;5.05;;;6.20;88.80;;;;;;4967070;28;20710;-73
2021/01/25 13:10:30;;;;;;;5.35;4.45;;;;;;;;;;4991433;28;20499;-74
2021/01/25 13:12:56;;;;;;;4.63;4.20;;;6.20;88.00;;;;;;4992353;28;20202;-74
2021/01/25 13:15:23;;;;;;;4.00;3.65;;;6.30;87.80;;;;;;4987820;28;20193;-73
2021/01/25 13:17:50;;;;;;;5.10;4.63;;;6.10;87.20;;;;;;4961856;28;20224;-73
2021/01/25 13:20:28;;;;;;;5.35;4.35;;;6.00;86.70;;;;;;4991357;28;20648;-73
2021/01/25 13:22:54;;;;;;;5.95;4.47;;;5.90;89.90;;;;;;4990232;28;20248;-76
2021/01/25 13:25:20;;;;;;;4.55;3.70;;;6.00;88.70;;;;;;4967063;28;20174;-74
2021/01/25 13:27:46;;;;;;;4.10;3.70;;;5.90;88.00;;;;;;4992320;28;20540;-73
2021/01/25 13:30:14;;;;;;;6.15;3.97;;;5.90;86.40;;;;;;4992051;28;20180;-74
2021/01/25 13:32:40;;;;;;;4.70;4.15;;;6.00;86.00;;;;;;4992120;28;20312;-73
2021/01/25 13:35:08;;;;;;;4.25;3.72;;;6.00;85.00;;;;;;4974912;28;20180;-73
2021/01/25 13:37:34;;;;;;;4.20;3.80;;;5.70;85.90;;;;;;4992147;28;20684;-74
2021/01/25 13:39:59;;;;;;;4.25;3.85;;;6.20;87.00;;;;;;4993449;28;20226;-75
2021/01/25 13:42:25;;;;;;;6.05;4.40;;;5.80;86.60;;;;;;4976684;28;20212;-74
2021/01/25 13:44:51;;;;;;;4.85;4.35;;;6.00;87.20;;;;;;4993505;28;20576;-74
2021/01/25 13:47:18;;;;;;;7.57;4.45;;;5.90;87.20;;;;;;4995771;28;20166;-75
2021/01/25 13:49:44;;;;;;;10.05;5.03;;;5.90;88.20;;;;;;4993050;28;20181;-74
2021/01/25 13:52:11;;;;;;;4.93;4.47;;;;;;;;;;4971025;28;20236;-74
2021/01/25 13:54:39;;;;;;;5.88;4.70;;;5.80;87.90;;;;;;4990856;28;20193;-74
2021/01/25 13:57:07;;;;;;;5.55;4.80;;;5.70;87.80;;;;;;4989816;28;20547;-75
2021/01/25 13:59:33;;;;;;;6.75;4.57;;;5.70;88.70;;;;;;4992727;28;20200;-77
2021/01/25 14:01:59;;;;;;;6.60;5.07;;;5.60;88.80;;;;;;4989170;28;20273;-77
2021/01/25 14:04:25;;;;;;;5.57;4.80;;;5.60;90.00;;;;;;4992359;28;20212;-75
2021/01/25 14:06:51;;;;;;;5.78;5.03;;;5.60;90.30;;;;;;4967140;28;20637;-69
2021/01/25 14:09:20;;;;;;;6.53;5.70;;;5.50;90.40;;;;;;4963909;28;20198;-70
2021/01/25 14:11:46;;;;;;;5.82;5.22;;;5.50;91.50;;;;;;4991227;28;20204;-73
2021/01/25 14:14:13;;;;;;;6.25;5.43;;;5.50;92.20;;;;;;4992555;28;20693;-74
2021/01/25 14:16:41;;;;;;;8.57;5.65;;;5.50;92.30;;;;;;4974737;28;20178;-73
2021/01/25 14:19:08;;;;;;;6.50;5.38;;;5.50;91.90;;;;;;4992779;28;20291;-73
2021/01/25 14:21:34;;;;;;;5.88;5.28;;;5.40;91.60;;;;;;4975147;28;20193;-75
2021/01/25 14:24:00;;;;;;;5.60;4.90;;;5.40;91.50;;;;;;4992311;28;20237;-75
2021/01/25 14:26:26;;;;;;;6.65;5.95;;;;;;;;;;4974529;28;20431;-74
2021/01/25 14:28:52;;;;;;;7.03;5.38;;;5.40;91.40;;;;;;4993083;28;20276;-72
2021/01/25 14:31:18;;;;;;;7.32;5.10;;;5.40;91.30;;;;;;4979030;28;20200;-73
2021/01/25 14:33:44;;;;;;;5.63;5.07;;;5.40;91.60;;;;;;4995942;28;20651;-73
2021/01/25 14:36:10;;;;;;;7.57;5.18;;;5.20;91.60;;;;;;4996676;28;20166;-72
2021/01/25 14:38:36;;;;;;;6.10;5.50;;;5.30;90.90;;;;;;4995247;28;20559;-73
2021/01/25 14:41:03;;;;;;;6.03;5.38;;;;;;;;;;4978686;28;20181;-72
2021/01/25 14:43:29;;;;;;;8.35;6.07;;;;;;;;;;4987602;28;20289;-73
2021/01/25 14:45:54;;;;;;;8.23;5.75;;;5.20;97.00;;;;;;4980508;28;20742;-73
2021/01/25 14:48:20;;;;;;;7.25;6.00;;;;;;;;;;4966952;28;20208;-72
2021/01/25 14:50:46;;;;;;;6.63;5.25;;;5.20;91.20;;;;;;4995155;28;20177;-74
2021/01/25 14:53:12;;;;;;;6.72;5.60;;;5.20;91.30;;;;;;4975641;28;20202;-74
2021/01/25 14:55:38;;;;;;;8.02;6.15;;;5.20;91.60;;;;;;4995128;28;20192;-75
2021/01/25 14:58:04;;;;;;;10.85;6.13;;;5.20;91.70;;;;;;4995285;28;20603;-75
2021/01/25 15:00:30;;;;;;;5.53;4.00;;;5.10;92.20;;;;;;4975083;28;20576;-75
2021/01/25 15:02:56;;;;;;;4.95;3.72;;;5.00;94.10;;;;;;4966927;28;20290;-73
2021/01/25 15:05:28;;;;;;;5.03;4.45;;;4.80;94.90;;;;;;4968165;28;20769;-75
2021/01/25 15:07:53;;;;;;;5.38;4.78;;;4.90;95.30;;;;;;4986339;28;20277;-75
2021/01/25 15:10:20;;;;;;;4.82;4.05;;;;;;;;;;4990367;28;20594;-74
2021/01/25 15:12:47;;;;;;;5.88;4.50;;;4.80;95.90;;;;;;4993721;28;20196;-73
2021/01/25 15:15:15;;;;;;;5.07;3.28;;;4.70;96.40;;;;;;4994615;28;20174;-75
2021/01/25 15:17:41;;;;;;;5.78;3.80;;;6.80;97.30;;;;;;4976822;28;20268;-74
2021/01/25 15:20:09;;;;;;;4.28;3.28;;;4.60;97.00;;;;;;4961576;28;20277;-74
2021/01/25 15:22:35;;;;;;;4.35;3.95;;;;;;;;;;4961098;28;20650;-75
2021/01/25 15:25:02;;;;;;;5.55;3.28;;;4.50;98.00;;;;;;4995287;28;20681;-75
2021/01/25 15:27:28;;;;;;;4.38;3.63;;;4.50;98.40;;;;;;4992251;28;20767;-75
2021/01/25 15:29:56;;;;;;;6.07;3.92;;;4.50;98.40;;;;;;4995710;28;20249;-74
2021/01/25 15:32:21;;;;;;;7.10;4.50;;;4.40;99.90;;;;;;4994831;28;20452;-76
2021/01/25 15:34:47;;;;;;;5.17;4.60;;;4.60;98.50;;;;;;4994386;28;20875;-77
2021/01/25 15:37:13;;;;;;;4.60;3.60;;;4.50;98.80;;;;;;4975743;28;20177;-77
2021/01/25 15:39:38;;;;;;;8.52;3.75;;;4.40;98.80;;;;;;4994112;28;20708;-75
2021/01/25 15:42:04;;;;;;;5.40;3.80;;;4.40;98.70;;;;;;4993222;28;20683;-75
2021/01/25 15:44:30;;;;;;;5.15;4.03;;;4.40;98.80;;;;;;4993247;28;20691;-75
2021/01/25 15:46:56;;;;;;;3.92;3.58;;;;;;;;;;4994962;28;20174;-75
2021/01/25 15:49:22;;;;;;;4.05;3.35;;;4.40;99.90;;;;;;4977548;28;20212;-75
2021/01/25 15:51:47;;;;;;;4.30;3.58;;;4.20;99.90;;;;;;4977209;28;20170;-75
2021/01/25 15:54:13;;;;;;;4.85;3.53;;;4.20;99.90;;;;;;4994550;28;20558;-75
2021/01/25 15:56:42;;;;;;;4.25;3.85;;;4.20;99.90;;;;;;4994782;28;20177;-75
2021/01/25 15:59:08;;;;;;;5.03;3.92;;;4.10;99.90;;;;;;4994780;28;20233;-75
2021/01/25 16:01:34;;;;;;;4.53;3.85;;;4.10;99.90;;;;;;4994708;28;20177;-75
2021/01/25 16:04:00;;;;;;;4.38;3.63;;;;;;;;;;4977215;28;20194;-75
2021/01/25 16:06:26;;;;;;;5.47;4.50;;;4.00;99.90;;;;;;4994401;28;20347;-75
2021/01/25 16:08:52;;;;;;;5.80;3.75;;;4.00;99.90;;;;;;4976700;28;20739;-74
2021/01/25 16:11:20;;;;;;;4.28;3.88;;;4.00;99.90;;;;;;4994610;28;20174;-75
2021/01/25 16:13:46;;;;;;;5.20;3.53;;;4.00;99.90;;;;;;4994512;28;20664;-75
2021/01/25 16:16:12;;;;;;;4.45;4.03;;;4.00;99.90;;;;;;4977092;28;20228;-75
2021/01/25 16:18:37;;;;;;;5.70;4.20;;;3.90;99.90;;;;;;4994350;28;20638;-75
2021/01/25 16:21:10;;;;;;;4.70;4.20;;;3.90;99.90;;;;;;4977194;28;20178;-75
2021/01/25 16:23:37;;;;;;;9.68;4.80;;;3.90;99.90;;;;;;4972778;28;20289;-75
2021/01/25 16:26:03;;;;;;;4.45;4.05;;;3.90;99.90;;;;;;4986710;28;20632;-77
2021/01/25 16:28:30;;;;;;;4.93;3.83;;;3.80;99.90;;;;;;4966363;28;20209;-76
2021/01/25 16:30:56;;;;;;;4.20;3.78;;;4.20;99.90;;;;;;4974017;28;20252;-76
2021/01/25 16:33:22;;;;;;;4.57;4.15;;;;;;;;;;4984168;28;20206;-77
2021/01/25 16:35:48;;;;;;;5.28;4.55;;;3.50;99.90;;;;;;4959193;28;20185;-78
2021/01/25 16:38:13;;;;;;;9.00;4.35;;;3.70;99.90;;;;;;4960401;28;20218;-77
2021/01/25 16:40:43;;;;;;;7.47;5.38;;;3.70;99.90;;;;;;4987852;28;20166;-80
2021/01/25 16:43:10;;;;;;;11.52;6.50;;;3.70;99.90;;;;;;4964491;28;20198;-74
2021/01/25 16:45:37;;;;;;;11.45;4.88;;;3.70;99.90;;;;;;4994162;28;20181;-75
2021/01/25 16:48:03;;;;;;;5.43;4.00;;;;;;;;;;4992953;28;20205;-74
2021/01/25 16:50:29;;;;;;;7.95;4.70;;;3.60;99.90;;;;;;4993784;28;20174;-73
2021/01/25 16:52:55;;;;;;;6.82;4.18;;;3.60;99.90;;;;;;4975124;28;20232;-74
2021/01/25 16:55:21;;;;;;;3.90;3.47;;;3.60;99.90;;;;;;4993430;28;20182;-73
2021/01/25 16:57:47;;;;;;;5.00;3.50;;;3.60;99.90;;;;;;4976135;28;20210;-73
2021/01/25 17:00:13;;;;;;;7.50;4.47;;;3.50;99.90;;;;;;4976859;28;20267;-74
2021/01/25 17:02:39;;;;;;;6.60;4.43;;;3.50;99.90;;;;;;4950323;28;20207;-75
2021/01/25 17:05:06;;;;;;;7.47;5.03;;;3.50;99.90;;;;;;4956143;28;20512;-73
2021/01/25 17:07:32;;;;;;;8.82;5.38;;;3.60;99.90;;;;;;4973517;28;20202;-73
2021/01/25 17:09:57;;;;;;;8.10;5.82;;;3.50;99.90;;;;;;4966482;28;20183;-74
2021/01/25 17:12:23;;;;;;;5.90;5.28;;;3.50;99.90;;;;;;4954378;28;20210;-74
2021/01/25 17:14:55;;;;;;;8.15;5.45;;;3.50;99.90;;;;;;5087144;27;20607;-73
2021/01/25 17:17:21;;;;;;;7.28;5.75;;;3.50;99.90;;;;;;5088176;28;20277;-71
2021/01/25 17:19:47;;;;;;;11.13;7.28;;;;;;;;;;5088803;28;20174;-72
2021/01/25 17:22:13;;;;;;;6.13;5.53;;;3.40;99.90;;;;;;5089157;28;20173;-73
2021/01/25 17:24:43;;;;;;;6.78;6.03;;;3.40;99.90;;;;;;5087262;28;20568;-73
2021/01/25 17:27:08;;;;;;;7.55;5.85;;;3.40;99.90;;;;;;5089035;28;20222;-73
2021/01/25 17:29:34;;;;;;;6.93;6.22;;;3.40;99.90;;;;;;5085903;28;20202;-72
2021/01/25 17:32:00;;;;;;;7.43;6.63;;;3.40;99.90;;;;;;5087246;28;20162;-73
2021/01/25 17:34:26;;;;;;;7.10;6.40;;;3.40;99.90;;;;;;5081894;28;20668;-74
2021/01/25 17:36:52;;;;;;;9.20;7.50;;;3.30;99.90;;;;;;5085123;28;20178;-73
2021/01/25 17:39:17;;;;;;;9.23;6.38;;;3.30;99.90;;;;;;5088539;28;20198;-72
2021/01/25 17:41:43;;;;;;;8.48;7.03;;;3.30;99.90;;;;;;5088456;28;20166;-74
2021/01/25 17:44:09;;;;;;;8.82;7.55;;;;;;;;;;5085252;28;20206;-72
2021/01/25 17:46:35;;;;;;;9.05;6.57;;;3.20;99.90;;;;;;5077470;28;20209;-73
2021/01/25 17:49:01;;;;;;;7.50;6.63;;;3.20;99.90;;;;;;5075455;28;20278;-72
2021/01/25 17:51:27;;;;;;;8.05;6.65;;;;;;;;;;5078232;28;20174;-73
2021/01/25 17:53:52;;;;;;;11.18;8.05;;;3.30;99.90;;;;;;5076716;28;20214;-73
2021/01/25 17:56:18;;;;;;;7.90;7.10;;;3.80;99.90;;;;;;5080865;28;20529;-73
2021/01/25 17:58:44;;;;;;;10.30;7.97;;;3.30;99.90;;;;;;5088006;28;20669;-73
2021/01/25 18:01:10;;;;;;;8.45;7.57;;;3.30;99.90;;;;;;5088379;28;20198;-72
2021/01/25 18:03:36;;;;;;;9.45;7.65;;;3.20;99.90;;;;;;5088114;28;20275;-73
2021/01/25 18:06:02;;;;;;;7.78;7.00;;;3.30;99.90;;;;;;5088357;28;20167;-73
2021/01/25 18:08:28;;;;;;;9.00;8.07;;;;;;;;;;5087699;28;20210;-73
2021/01/25 18:10:54;;;;;;;8.52;6.93;;;3.40;99.90;;;;;;5082892;28;20168;-72
2021/01/25 18:13:21;;;;;;;9.38;7.53;;;3.20;99.90;;;;;;5075587;28;20226;-72
2021/01/25 18:15:48;;;;;;;8.35;7.30;;;;;;;;;;5079173;28;20179;-73
2021/01/25 18:18:13;;;;;;;8.52;7.40;;;3.10;99.90;;;;;;5074464;28;20209;-72
2021/01/25 18:20:39;;;;;;;10.05;8.25;;;3.10;99.90;;;;;;5075899;28;20175;-75
2021/01/25 18:23:05;;;;;;;8.88;7.32;;;3.10;99.90;;;;;;5070115;28;20631;-72
2021/01/25 18:25:31;;;;;;;8.15;7.32;;;3.10;99.90;;;;;;5058349;28;20207;-73